Time;durP1;ratioP1;P1;durP2;ratioP2;P2;SDS_P1;SDS_P2;PMS_P1;PMS_P2;Temp;Humidity;BMP_temperature;BMP_pressure;BME280_temperature;BME280_humidity;BME280_pressure;Samples;Min_cycle;Max_cycle;Signal;HPM_P1;HPM_P2
2021/10/20 00:00:47;;;;;;;9.80;9.00;;;;;;;;;;5086140;28;24398;-60
2021/10/20 00:03:12;;;;;;;8.77;8.07;;;;;;;;;;5083385;28;24562;-59
2021/10/20 00:05:37;;;;;;;8.20;7.50;;;;;;;;;;5083789;28;24490;-60
2021/10/20 00:08:07;;;;;;;8.82;8.13;;;;;;;;;;5081780;28;24398;-60
2021/10/20 00:10:32;;;;;;;8.55;7.90;;;;;;;;;;5082096;28;24417;-60
2021/10/20 00:12:57;;;;;;;9.40;8.60;;;;;;;;;;5081425;28;25350;-60
2021/10/20 00:15:22;;;;;;;8.48;7.88;;;;;;;;;;5083618;28;24497;-60
2021/10/20 00:17:48;;;;;;;8.52;7.82;;;;;;;;;;5085673;28;24437;-59
2021/10/20 00:20:17;;;;;;;9.20;8.50;;;;;;;;;;5083233;28;24449;-60
2021/10/20 00:22:42;;;;;;;9.25;8.45;;;;;;;;;;5083395;28;24390;-60
2021/10/20 00:25:08;;;;;;;9.93;9.13;;;;;;;;;;5079934;28;24742;-60
2021/10/20 00:27:33;;;;;;;9.63;8.82;;;;;;;;;;5083483;28;24402;-59
2021/10/20 00:29:58;;;;;;;8.75;8.05;;;;;;;;;;5082790;28;24426;-60
2021/10/20 00:32:24;;;;;;;9.75;8.95;;;;;;;;;;5084985;28;24433;-60
2021/10/20 00:34:49;;;;;;;8.70;8.00;;;;;;;;;;5083216;28;24764;-59
2021/10/20 00:37:14;;;;;;;9.70;8.90;;;;;;;;;;5079457;28;24764;-60
2021/10/20 00:39:39;;;;;;;9.40;8.60;;;;;;;;;;5079392;28;24988;-60
2021/10/20 00:42:05;;;;;;;9.02;8.32;;;;;;;;;;5084308;28;24398;-60
2021/10/20 00:44:43;;;;;;;9.17;8.37;;;;;;;;;;5084852;28;24493;-59
2021/10/20 00:47:08;;;;;;;9.40;8.70;;;;;;;;;;5082763;28;24434;-59
2021/10/20 00:49:34;;;;;;;9.02;8.32;;;;;;;;;;5080865;28;24464;-60
2021/10/20 00:51:59;;;;;;;8.90;8.20;;;;;;;;;;5080794;28;24445;-60
2021/10/20 00:54:24;;;;;;;8.20;7.60;;;;;;;;;;5084607;28;24478;-59
2021/10/20 00:56:49;;;;;;;9.03;8.33;;;;;;;;;;5105056;27;24927;-59
2021/10/20 00:59:14;;;;;;;9.50;8.70;;;;;;;;;;5102516;28;24937;-59
2021/10/20 01:01:40;;;;;;;10.37;9.57;;;;;;;;;;5104918;28;24760;-58
2021/10/20 01:04:05;;;;;;;9.00;8.30;;;;;;;;;;5103006;28;24768;-59
2021/10/20 01:06:31;;;;;;;8.65;7.95;;;;;;;;;;5098001;28;25005;-59
2021/10/20 01:08:56;;;;;;;10.00;9.20;;;;;;;;;;5100756;28;24447;-59
2021/10/20 01:11:21;;;;;;;9.50;8.80;;;;;;;;;;5103275;28;24437;-59
2021/10/20 01:13:46;;;;;;;8.85;8.15;;;;;;;;;;5104821;28;24406;-59
2021/10/20 01:16:11;;;;;;;9.37;8.57;;;;;;;;;;5102699;28;24509;-59
2021/10/20 01:18:37;;;;;;;8.60;8.00;;;;;;;;;;5102638;28;24426;-59
2021/10/20 01:21:03;;;;;;;8.40;7.70;;;;;;;;;;5100632;28;24435;-59
2021/10/20 01:23:28;;;;;;;8.60;7.90;;;;;;;;;;5098761;28;25012;-59
2021/10/20 01:25:53;;;;;;;7.80;7.20;;;;;;;;;;5102598;28;24402;-59
2021/10/20 01:28:18;;;;;;;8.27;7.67;;;;;;;;;;5104376;28;24427;-58
2021/10/20 01:30:44;;;;;;;7.73;7.13;;;;;;;;;;5104541;28;24417;-59
2021/10/20 01:33:10;;;;;;;9.23;8.53;;;;;;;;;;5102448;28;24436;-59
2021/10/20 01:35:35;;;;;;;9.27;8.37;;;;;;;;;;5100450;28;24412;-60
2021/10/20 01:38:01;;;;;;;8.80;8.10;;;;;;;;;;5100436;28;24417;-60
2021/10/20 01:40:26;;;;;;;8.60;7.90;;;;;;;;;;5100852;28;25047;-60
2021/10/20 01:42:52;;;;;;;8.00;7.40;;;;;;;;;;5103403;28;24397;-60
2021/10/20 01:45:17;;;;;;;7.70;7.10;;;;;;;;;;5102159;28;24413;-60
2021/10/20 01:47:42;;;;;;;8.20;7.50;;;;;;;;;;5104455;28;24394;-60
2021/10/20 01:50:09;;;;;;;8.53;7.80;;;;;;;;;;5098851;28;24433;-60
2021/10/20 01:52:34;;;;;;;8.10;7.50;;;;;;;;;;5098437;28;25040;-59
2021/10/20 01:54:59;;;;;;;9.20;8.40;;;;;;;;;;5090620;28;24884;-59
2021/10/20 01:57:24;;;;;;;7.90;7.30;;;;;;;;;;5083810;28;24394;-60
2021/10/20 01:59:49;;;;;;;8.20;7.50;;;;;;;;;;5083473;28;24963;-59
2021/10/20 02:02:21;;;;;;;8.07;7.47;;;;;;;;;;5081608;28;24394;-59
2021/10/20 02:04:47;;;;;;;8.75;8.00;;;;;;;;;;5079818;28;24461;-59
2021/10/20 02:07:12;;;;;;;7.63;7.10;;;;;;;;;;5078202;28;24409;-59
2021/10/20 02:09:37;;;;;;;9.10;8.30;;;;;;;;;;5081554;28;24928;-59
2021/10/20 02:12:03;;;;;;;7.50;6.90;;;;;;;;;;5082316;28;24387;-59
2021/10/20 02:14:28;;;;;;;8.60;7.90;;;;;;;;;;5083692;28;24753;-59
2021/10/20 02:16:53;;;;;;;8.25;7.55;;;;;;;;;;5083572;28;24410;-58
2021/10/20 02:19:19;;;;;;;8.03;7.43;;;;;;;;;;5081541;28;24491;-59
2021/10/20 02:21:44;;;;;;;8.30;7.70;;;;;;;;;;5078309;28;24542;-59
2021/10/20 02:24:09;;;;;;;8.20;7.50;;;;;;;;;;5077793;28;24403;-59
2021/10/20 02:26:34;;;;;;;8.93;8.23;;;;;;;;;;5083809;28;24398;-58
2021/10/20 02:28:59;;;;;;;8.10;7.40;;;;;;;;;;5081210;28;24951;-59
2021/10/20 02:31:24;;;;;;;9.20;8.40;;;;;;;;;;5083400;28;24517;-59
2021/10/20 02:33:49;;;;;;;7.90;7.38;;;;;;;;;;5082982;28;24544;-59
2021/10/20 02:36:15;;;;;;;8.50;7.80;;;;;;;;;;5077802;28;24440;-59
2021/10/20 02:38:40;;;;;;;8.20;7.50;;;;;;;;;;5077795;28;24464;-59
2021/10/20 02:41:05;;;;;;;7.70;7.10;;;;;;;;;;5081639;28;24394;-59
2021/10/20 02:43:35;;;;;;;8.10;7.50;;;;;;;;;;5083379;28;24989;-59
2021/10/20 02:46:00;;;;;;;8.38;7.78;;;;;;;;;;5081507;28;24390;-59
2021/10/20 02:48:25;;;;;;;8.40;7.80;;;;;;;;;;5081390;28;24416;-59
2021/10/20 02:50:50;;;;;;;8.10;7.50;;;;;;;;;;5079634;28;24386;-59
2021/10/20 02:53:15;;;;;;;7.90;7.20;;;;;;;;;;5077892;28;24390;-59
2021/10/20 02:55:41;;;;;;;8.20;7.60;;;;;;;;;;5099973;28;24402;-59
2021/10/20 02:58:06;;;;;;;9.83;9.03;;;;;;;;;;5105135;28;24401;-59
2021/10/20 03:00:31;;;;;;;8.63;7.93;;;;;;;;;;5107521;28;24390;-59
2021/10/20 03:02:56;;;;;;;8.90;8.10;;;;;;;;;;5107018;27;24980;-59
2021/10/20 03:05:22;;;;;;;8.55;7.90;;;;;;;;;;5104899;28;24492;-60
2021/10/20 03:07:48;;;;;;;9.00;8.30;;;;;;;;;;5102240;28;24522;-60
2021/10/20 03:10:13;;;;;;;8.57;7.88;;;;;;;;;;5101410;28;24405;-60
2021/10/20 03:12:38;;;;;;;10.00;9.20;;;;;;;;;;5103615;28;24435;-60
2021/10/20 03:15:04;;;;;;;7.87;7.27;;;;;;;;;;5105068;28;25107;-60
2021/10/20 03:17:29;;;;;;;9.37;8.67;;;;;;;;;;5106939;28;24394;-60
2021/10/20 03:19:54;;;;;;;8.90;8.20;;;;;;;;;;5106815;28;24466;-60
2021/10/20 03:22:19;;;;;;;9.00;8.30;;;;;;;;;;5101224;28;24386;-60
2021/10/20 03:24:45;;;;;;;8.75;8.05;;;;;;;;;;5101149;28;24790;-60
2021/10/20 03:27:10;;;;;;;8.87;8.10;;;;;;;;;;5103077;28;24426;-60
2021/10/20 03:29:35;;;;;;;8.90;8.18;;;;;;;;;;5104514;28;24409;-60
2021/10/20 03:32:00;;;;;;;9.10;8.30;;;;;;;;;;5105028;28;24806;-60
2021/10/20 03:34:25;;;;;;;7.60;7.00;;;;;;;;;;5104924;28;24420;-60
2021/10/20 03:36:50;;;;;;;8.93;8.23;;;;;;;;;;5102268;28;24896;-60
2021/10/20 03:39:15;;;;;;;8.93;8.13;;;;;;;;;;5100591;28;24421;-60
2021/10/20 03:41:41;;;;;;;8.60;7.90;;;;;;;;;;5106149;28;24389;-60
2021/10/20 03:44:06;;;;;;;8.90;8.10;;;;;;;;;;5105232;27;25216;-60
2021/10/20 03:46:31;;;;;;;8.43;7.73;;;;;;;;;;5106674;28;24390;-60
2021/10/20 03:48:56;;;;;;;8.98;8.27;;;;;;;;;;5104571;28;24458;-60
2021/10/20 03:51:21;;;;;;;8.80;8.10;;;;;;;;;;5100858;27;24416;-60
2021/10/20 03:53:46;;;;;;;9.00;8.30;;;;;;;;;;5100772;28;24413;-60
2021/10/20 03:56:12;;;;;;;9.40;8.70;;;;;;;;;;5085005;28;24540;-60
2021/10/20 03:58:37;;;;;;;9.20;8.35;;;;;;;;;;5085558;28;24801;-60
2021/10/20 04:01:02;;;;;;;9.68;8.95;;;;;;;;;;5083911;28;24405;-60
2021/10/20 04:03:27;;;;;;;9.47;8.67;;;;;;;;;;5083818;28;24394;-60
2021/10/20 04:05:52;;;;;;;10.25;9.43;;;;;;;;;;5081241;28;24524;-60
2021/10/20 04:08:17;;;;;;;9.10;8.30;;;;;;;;;;5079863;28;24422;-60
2021/10/20 04:10:42;;;;;;;7.40;6.80;;;;;;;;;;5084033;28;24937;-60
2021/10/20 04:13:08;;;;;;;9.13;8.43;;;;;;;;;;5085689;28;24386;-60
2021/10/20 04:15:33;;;;;;;9.10;8.20;;;;;;;;;;5085700;28;25248;-60
2021/10/20 04:17:58;;;;;;;9.23;8.40;;;;;;;;;;5083406;28;24450;-60
2021/10/20 04:20:24;;;;;;;9.40;8.60;;;;;;;;;;5079828;28;25210;-60
2021/10/20 04:22:50;;;;;;;9.07;8.38;;;;;;;;;;5079901;28;24397;-59
2021/10/20 04:25:16;;;;;;;8.50;7.80;;;;;;;;;;5083104;28;24511;-59
2021/10/20 04:27:41;;;;;;;8.60;7.90;;;;;;;;;;5085329;28;25229;-59
2021/10/20 04:30:07;;;;;;;7.60;6.90;;;;;;;;;;5083253;28;24438;-59
2021/10/20 04:32:32;;;;;;;8.00;7.30;;;;;;;;;;5085437;28;24951;-59
2021/10/20 04:35:00;;;;;;;8.03;7.23;;;;;;;;;;5081164;28;24391;-60
2021/10/20 04:37:25;;;;;;;7.50;6.90;;;;;;;;;;5079630;28;24398;-60
2021/10/20 04:39:56;;;;;;;7.53;6.93;;;;;;;;;;5081394;28;24398;-60
2021/10/20 04:42:22;;;;;;;7.00;6.40;;;;;;;;;;5085101;28;24439;-59
2021/10/20 04:44:47;;;;;;;7.80;7.20;;;;;;;;;;5085166;28;24414;-60
2021/10/20 04:47:12;;;;;;;8.53;7.83;;;;;;;;;;5083232;28;24390;-60
2021/10/20 04:49:37;;;;;;;7.95;7.25;;;;;;;;;;5079300;28;24931;-60
2021/10/20 04:52:02;;;;;;;8.50;7.80;;;;;;;;;;5079313;28;24940;-60
2021/10/20 04:54:28;;;;;;;8.10;7.50;;;;;;;;;;5087128;28;24970;-60
2021/10/20 04:56:53;;;;;;;7.28;6.68;;;;;;;;;;5105563;28;24390;-60
2021/10/20 04:59:18;;;;;;;7.30;6.70;;;;;;;;;;5103274;28;24897;-60
2021/10/20 05:01:43;;;;;;;6.90;6.40;;;;;;;;;;5105252;28;24794;-60
2021/10/20 05:04:08;;;;;;;6.97;6.40;;;;;;;;;;5103110;28;24386;-60
2021/10/20 05:06:33;;;;;;;6.80;6.30;;;;;;;;;;5099985;28;24401;-60
2021/10/20 05:08:58;;;;;;;7.10;6.47;;;;;;;;;;5101201;28;24802;-60
2021/10/20 05:11:24;;;;;;;6.90;6.40;;;;;;;;;;5102985;28;24390;-60
2021/10/20 05:13:49;;;;;;;6.50;5.90;;;;;;;;;;5104617;28;24511;-60
2021/10/20 05:16:14;;;;;;;7.30;6.70;;;;;;;;;;5102610;28;24585;-60
2021/10/20 05:18:39;;;;;;;7.20;6.50;;;;;;;;;;5102940;28;24418;-60
2021/10/20 05:21:04;;;;;;;6.68;6.13;;;;;;;;;;5100868;28;24704;-60
2021/10/20 05:23:29;;;;;;;6.80;6.30;;;;;;;;;;5099705;28;25086;-60
2021/10/20 05:25:54;;;;;;;6.68;6.18;;;;;;;;;;5100700;28;24397;-60
2021/10/20 05:28:20;;;;;;;7.13;6.53;;;;;;;;;;5104587;28;24413;-59
2021/10/20 05:30:45;;;;;;;6.55;6.05;;;;;;;;;;5104855;28;24422;-59
2021/10/20 05:33:10;;;;;;;7.35;6.72;;;;;;;;;;5102786;28;24373;-60
2021/10/20 05:35:35;;;;;;;6.93;6.32;;;;;;;;;;5104081;28;24424;-60
2021/10/20 05:38:00;;;;;;;6.70;6.20;;;;;;;;;;5116353;27;24421;-60
2021/10/20 05:40:25;;;;;;;6.73;6.13;;;;;;;;;;5099086;28;24752;-60
2021/10/20 05:42:51;;;;;;;6.50;6.00;;;;;;;;;;5100988;28;24392;-60
2021/10/20 05:45:16;;;;;;;6.00;5.60;;;;;;;;;;5104196;28;24712;-60
2021/10/20 05:47:41;;;;;;;6.50;5.60;;;;;;;;;;5104404;28;24434;-60
2021/10/20 05:50:07;;;;;;;5.95;5.45;;;;;;;;;;5102197;28;24405;-60
2021/10/20 05:52:32;;;;;;;5.82;5.32;;;;;;;;;;5100542;28;24401;-60
2021/10/20 05:54:58;;;;;;;5.70;5.30;;;;;;;;;;5091726;28;24489;-60
2021/10/20 05:57:23;;;;;;;6.60;6.00;;;;;;;;;;5080285;28;24757;-59
2021/10/20 05:59:48;;;;;;;5.50;5.10;;;;;;;;;;5084024;28;24428;-60
2021/10/20 06:02:14;;;;;;;5.83;5.40;;;;;;;;;;5082085;28;24749;-59
2021/10/20 06:04:40;;;;;;;5.40;5.00;;;;;;;;;;5081791;28;24417;-60
2021/10/20 06:07:05;;;;;;;5.45;4.95;;;;;;;;;;5079802;28;24418;-60
2021/10/20 06:09:30;;;;;;;5.90;5.30;;;;;;;;;;5078353;28;24398;-60
2021/10/20 06:11:55;;;;;;;6.40;5.80;;;;;;;;;;5081778;28;24979;-60
2021/10/20 06:14:20;;;;;;;5.80;5.30;;;;;;;;;;5083579;28;24459;-60
2021/10/20 06:16:45;;;;;;;6.00;5.40;;;;;;;;;;5083663;28;24425;-60
2021/10/20 06:19:11;;;;;;;6.50;5.90;;;;;;;;;;5081381;28;24425;-60
2021/10/20 06:21:36;;;;;;;5.72;5.22;;;;;;;;;;5077486;28;24522;-60
2021/10/20 06:24:02;;;;;;;6.17;5.50;;;;;;;;;;5078181;28;24883;-60
2021/10/20 06:26:27;;;;;;;6.03;5.47;;;;;;;;;;5083169;28;24398;-60
2021/10/20 06:28:54;;;;;;;5.93;5.40;;;;;;;;;;5085210;28;24382;-59
2021/10/20 06:31:19;;;;;;;5.53;5.03;;;;;;;;;;5085468;28;24410;-59
2021/10/20 06:33:44;;;;;;;5.60;5.20;;;;;;;;;;5087550;28;24402;-60
2021/10/20 06:36:22;;;;;;;6.00;5.40;;;;;;;;;;5083191;28;24433;-59
2021/10/20 06:38:47;;;;;;;5.50;5.00;;;;;;;;;;5081730;28;24567;-59
2021/10/20 06:41:12;;;;;;;5.40;4.90;;;;;;;;;;5083829;28;25194;-60
2021/10/20 06:43:37;;;;;;;6.20;5.07;;;;;;;;;;5085442;28;24398;-60
2021/10/20 06:46:03;;;;;;;4.70;4.40;;;;;;;;;;5085482;28;24409;-60
2021/10/20 06:48:28;;;;;;;4.93;4.53;;;;;;;;;;5087016;28;25258;-60
2021/10/20 06:50:53;;;;;;;5.90;5.33;;;;;;;;;;5083553;28;24429;-60
2021/10/20 06:53:18;;;;;;;5.10;4.60;;;;;;;;;;5081102;28;24398;-59
2021/10/20 06:55:45;;;;;;;5.07;4.67;;;;;;;;;;5098466;28;24451;-60
2021/10/20 06:58:10;;;;;;;5.10;4.70;;;;;;;;;;5107252;28;24954;-60
2021/10/20 07:00:35;;;;;;;5.28;4.88;;;;;;;;;;5107507;28;24412;-60
2021/10/20 07:03:01;;;;;;;5.70;5.20;;;;;;;;;;5105259;28;24950;-60
2021/10/20 07:05:26;;;;;;;5.33;4.83;;;;;;;;;;5102713;28;24393;-60
2021/10/20 07:07:51;;;;;;;5.70;5.20;;;;;;;;;;5102959;27;24382;-60
2021/10/20 07:10:16;;;;;;;5.27;4.77;;;;;;;;;;5103407;28;24963;-60
2021/10/20 07:12:41;;;;;;;5.30;4.90;;;;;;;;;;5107400;28;24389;-60
2021/10/20 07:15:07;;;;;;;5.90;5.30;;;;;;;;;;5104799;28;25013;-60
2021/10/20 07:17:32;;;;;;;5.03;4.63;;;;;;;;;;5106999;28;24946;-60
2021/10/20 07:19:57;;;;;;;4.80;4.40;;;;;;;;;;5103066;28;24402;-59
2021/10/20 07:22:22;;;;;;;5.00;4.60;;;;;;;;;;5101390;28;24501;-60
2021/10/20 07:24:47;;;;;;;4.72;4.32;;;;;;;;;;5103117;28;24413;-59
2021/10/20 07:27:13;;;;;;;4.60;4.23;;;;;;;;;;5106770;28;24977;-60
2021/10/20 07:29:40;;;;;;;4.70;4.40;;;;;;;;;;5106244;28;24400;-59
2021/10/20 07:32:05;;;;;;;5.47;4.60;;;;;;;;;;5104829;28;24394;-60
2021/10/20 07:34:30;;;;;;;4.70;4.30;;;;;;;;;;5100753;27;24416;-60
2021/10/20 07:36:55;;;;;;;5.17;4.67;;;;;;;;;;5102762;27;24744;-59
2021/10/20 07:39:21;;;;;;;4.40;4.10;;;;;;;;;;5102137;28;24499;-59
2021/10/20 07:41:46;;;;;;;5.10;4.70;;;;;;;;;;5106178;28;24393;-59
2021/10/20 07:44:11;;;;;;;5.43;4.93;;;;;;;;;;5104564;28;24389;-59
2021/10/20 07:46:36;;;;;;;4.30;4.00;;;;;;;;;;5106133;28;24382;-60
2021/10/20 07:49:02;;;;;;;4.53;4.22;;;;;;;;;;5104390;28;24382;-60
2021/10/20 07:51:27;;;;;;;4.60;4.20;;;;;;;;;;5100818;28;24404;-60
2021/10/20 07:53:52;;;;;;;4.60;4.22;;;;;;;;;;5102715;27;24378;-60
2021/10/20 07:56:17;;;;;;;4.80;4.40;;;;;;;;;;5084041;28;24401;-60
2021/10/20 07:58:42;;;;;;;5.60;4.33;;;;;;;;;;5085932;28;25064;-60
2021/10/20 08:01:08;;;;;;;5.00;4.60;;;;;;;;;;5084104;28;24390;-62
2021/10/20 08:03:33;;;;;;;4.50;4.20;;;;;;;;;;5085508;28;24408;-58
2021/10/20 08:05:58;;;;;;;5.37;4.97;;;;;;;;;;5082023;28;24390;-59
2021/10/20 08:08:23;;;;;;;5.30;4.80;;;;;;;;;;5080143;28;25021;-59
2021/10/20 08:10:48;;;;;;;4.53;4.13;;;;;;;;;;5081863;28;24432;-59
2021/10/20 08:13:14;;;;;;;4.70;4.30;;;;;;;;;;5085501;28;24924;-60
2021/10/20 08:15:39;;;;;;;4.78;4.38;;;;;;;;;;5085467;28;24974;-60
2021/10/20 08:18:05;;;;;;;4.70;4.30;;;;;;;;;;5083324;28;24438;-59
2021/10/20 08:20:31;;;;;;;4.60;4.20;;;;;;;;;;5083621;28;24402;-60
2021/10/20 08:22:57;;;;;;;4.20;3.90;;;;;;;;;;5081648;28;24386;-60
2021/10/20 08:25:22;;;;;;;4.50;4.20;;;;;;;;;;5079641;28;24401;-60
2021/10/20 08:27:47;;;;;;;4.43;4.13;;;;;;;;;;5081868;28;24377;-60
2021/10/20 08:30:18;;;;;;;4.40;4.00;;;;;;;;;;5083136;28;24515;-59
2021/10/20 08:32:48;;;;;;;5.00;4.35;;;;;;;;;;5085148;28;24987;-59
2021/10/20 08:35:16;;;;;;;4.43;4.03;;;;;;;;;;5083010;28;24786;-59
2021/10/20 08:37:42;;;;;;;4.40;4.00;;;;;;;;;;5079477;28;24469;-58
2021/10/20 08:40:07;;;;;;;5.37;4.10;;;;;;;;;;5079516;28;24508;-58
2021/10/20 08:42:33;;;;;;;3.70;3.40;;;;;;;;;;5083303;28;24911;-57
2021/10/20 08:44:59;;;;;;;4.10;3.80;;;;;;;;;;5083165;28;24390;-58
2021/10/20 08:47:24;;;;;;;4.82;4.32;;;;;;;;;;5084521;28;24402;-58
2021/10/20 08:49:50;;;;;;;3.53;3.22;;;;;;;;;;5084702;28;24441;-58
2021/10/20 08:52:15;;;;;;;4.10;3.55;;;;;;;;;;5081815;28;24402;-58
2021/10/20 08:54:41;;;;;;;3.57;3.30;;;;;;;;;;5085516;28;24417;-58
2021/10/20 08:57:06;;;;;;;4.10;3.70;;;;;;;;;;5099514;28;24605;-58
2021/10/20 08:59:32;;;;;;;3.90;3.50;;;;;;;;;;5104843;28;24478;-58
2021/10/20 09:02:01;;;;;;;4.53;4.13;;;;;;;;;;5105035;28;24777;-60
2021/10/20 09:04:28;;;;;;;3.90;3.57;;;;;;;;;;5104565;28;25025;-59
2021/10/20 09:06:54;;;;;;;3.70;3.40;;;;;;;;;;5100855;28;24492;-60
2021/10/20 09:09:19;;;;;;;3.70;3.40;;;;;;;;;;5099039;28;24526;-61
2021/10/20 09:11:44;;;;;;;3.97;3.22;;;;;;;;;;5101233;27;24903;-60
2021/10/20 09:14:14;;;;;;;3.50;3.20;;;;;;;;;;5102836;28;24833;-60
2021/10/20 09:16:43;;;;;;;3.78;3.47;;;;;;;;;;5104398;28;24801;-60
2021/10/20 09:19:11;;;;;;;3.60;3.30;;;;;;;;;;5102420;28;24422;-60
2021/10/20 09:21:48;;;;;;;4.00;3.58;;;;;;;;;;5098907;28;24543;-61
2021/10/20 09:24:13;;;;;;;4.60;3.53;;;;;;;;;;5098441;28;24413;-59
2021/10/20 09:26:38;;;;;;;3.22;2.95;;;;;;;;;;5104605;28;24970;-60
2021/10/20 09:29:17;;;;;;;3.70;2.80;;;;;;;;;;5102208;27;24438;-60
2021/10/20 09:31:43;;;;;;;3.67;3.30;;;;;;;;;;5104591;28;24574;-60
2021/10/20 09:34:08;;;;;;;3.95;3.65;;;;;;;;;;5100449;28;24500;-60
2021/10/20 09:36:34;;;;;;;3.53;3.23;;;;;;;;;;5098949;28;24448;-60
2021/10/20 09:38:59;;;;;;;3.85;3.50;;;;;;;;;;5099951;28;24412;-60
2021/10/20 09:41:25;;;;;;;3.30;3.00;;;;;;;;;;5103176;28;24382;-60
2021/10/20 09:43:55;;;;;;;4.00;3.60;;;;;;;;;;5104239;28;24398;-61
2021/10/20 09:46:33;;;;;;;3.80;3.50;;;;;;;;;;5101867;28;24404;-60
2021/10/20 09:49:03;;;;;;;4.27;3.87;;;;;;;;;;5101986;28;24463;-61
2021/10/20 09:51:28;;;;;;;3.40;3.10;;;;;;;;;;5100429;28;24953;-61
2021/10/20 09:53:53;;;;;;;3.50;3.20;;;;;;;;;;5099363;28;24532;-61
2021/10/20 09:56:20;;;;;;;3.50;3.20;;;;;;;;;;5081824;28;24414;-61
2021/10/20 09:58:46;;;;;;;4.10;3.70;;;;;;;;;;5083085;28;24414;-61
2021/10/20 10:01:13;;;;;;;4.25;3.33;;;;;;;;;;5082087;28;24387;-61
2021/10/20 10:03:38;;;;;;;3.35;3.05;;;;;;;;;;5079176;28;24410;-61
2021/10/20 10:06:03;;;;;;;3.07;2.87;;;;;;;;;;5080240;28;24378;-60
2021/10/20 10:08:28;;;;;;;3.47;3.17;;;;;;;;;;5078070;28;24398;-60
2021/10/20 10:10:54;;;;;;;3.30;3.00;;;;;;;;;;5079439;28;24393;-60
2021/10/20 10:13:21;;;;;;;3.20;2.90;;;;;;;;;;5083689;28;24522;-61
2021/10/20 10:15:47;;;;;;;3.50;3.20;;;;;;;;;;5083553;28;24809;-61
2021/10/20 10:18:12;;;;;;;3.50;3.20;;;;;;;;;;5079871;28;24480;-60
2021/10/20 10:20:44;;;;;;;3.60;3.30;;;;;;;;;;5078122;28;24412;-60
2021/10/20 10:23:20;;;;;;;3.28;2.88;;;;;;;;;;5077774;28;24983;-60
2021/10/20 10:25:46;;;;;;;3.20;2.90;;;;;;;;;;5080116;28;24463;-61
2021/10/20 10:28:17;;;;;;;3.40;3.10;;;;;;;;;;5083643;28;24932;-60
2021/10/20 10:30:50;;;;;;;2.90;2.70;;;;;;;;;;5083708;28;24424;-60
2021/10/20 10:33:20;;;;;;;3.10;2.90;;;;;;;;;;5079460;28;25047;-60
2021/10/20 10:35:45;;;;;;;3.30;3.10;;;;;;;;;;5077811;28;24413;-60
2021/10/20 10:38:11;;;;;;;3.40;3.10;;;;;;;;;;5079625;28;24426;-60
2021/10/20 10:40:36;;;;;;;3.53;3.22;;;;;;;;;;5081619;28;24398;-61
2021/10/20 10:43:06;;;;;;;3.00;2.80;;;;;;;;;;5082184;28;24398;-60
2021/10/20 10:45:31;;;;;;;3.00;2.80;;;;;;;;;;5083649;28;24448;-60
2021/10/20 10:47:56;;;;;;;3.47;3.17;;;;;;;;;;5080983;28;24548;-60
2021/10/20 10:50:36;;;;;;;3.53;3.10;;;;;;;;;;5077864;28;24402;-60
2021/10/20 10:53:01;;;;;;;4.25;3.00;;;;;;;;;;5079510;28;24396;-60
2021/10/20 10:55:27;;;;;;;3.40;3.10;;;;;;;;;;5092278;28;24959;-60
2021/10/20 10:58:03;;;;;;;3.20;2.90;;;;;;;;;;5103324;28;24679;-60
2021/10/20 11:00:30;;;;;;;3.50;3.20;;;;;;;;;;5103443;28;24385;-60
2021/10/20 11:03:21;;;;;;;3.80;3.25;;;;;;;;;;5101077;28;24405;-61
2021/10/20 11:05:47;;;;;;;3.70;3.40;;;;;;;;;;5090698;28;24963;-58
2021/10/20 11:08:13;;;;;;;3.08;2.88;;;;;;;;;;5099699;28;24378;-61
2021/10/20 11:10:39;;;;;;;5.10;3.60;;;;;;;;;;5101594;28;24397;-61
2021/10/20 11:13:05;;;;;;;5.00;3.30;;;;;;;;;;5101465;28;24412;-61
2021/10/20 11:15:31;;;;;;;3.50;3.20;;;;;;;;;;5105795;28;24959;-61
2021/10/20 11:17:56;;;;;;;3.53;3.22;;;;;;;;;;5106798;28;24492;-61
2021/10/20 11:20:22;;;;;;;4.80;3.00;;;;;;;;;;5103244;28;25029;-61
2021/10/20 11:22:49;;;;;;;3.27;2.97;;;;;;;;;;5101591;28;24879;-61
2021/10/20 11:25:15;;;;;;;3.03;2.70;;;;;;;;;;5101661;28;24508;-61
2021/10/20 11:27:45;;;;;;;3.08;2.78;;;;;;;;;;5103082;28;24417;-61
2021/10/20 11:30:10;;;;;;;3.20;2.88;;;;;;;;;;5102585;28;24783;-61
2021/10/20 11:32:35;;;;;;;3.10;2.80;;;;;;;;;;5106600;28;24983;-61
2021/10/20 11:35:01;;;;;;;3.00;2.80;;;;;;;;;;5078796;28;24476;-62
2021/10/20 11:37:27;;;;;;;2.80;2.60;;;;;;;;;;5079979;28;24394;-61
2021/10/20 11:39:54;;;;;;;2.80;2.60;;;;;;;;;;5082509;28;24410;-61
2021/10/20 11:42:19;;;;;;;3.03;2.70;;;;;;;;;;5080503;28;24841;-61
2021/10/20 11:44:45;;;;;;;3.17;2.87;;;;;;;;;;5086476;28;24440;-62
2021/10/20 11:47:11;;;;;;;4.10;3.00;;;;;;;;;;5084442;28;24924;-60
2021/10/20 11:49:42;;;;;;;3.50;3.20;;;;;;;;;;5084017;28;25032;-60
2021/10/20 11:52:09;;;;;;;3.65;2.70;;;;;;;;;;5080425;28;24398;-61
2021/10/20 11:54:36;;;;;;;2.90;2.70;;;;;;;;;;5098131;28;24772;-61
2021/10/20 11:57:04;;;;;;;2.80;2.60;;;;;;;;;;5104650;27;24404;-61
2021/10/20 11:59:29;;;;;;;1.90;1.80;;;;;;;;;;5106129;28;24420;-60
2021/10/20 12:01:55;;;;;;;2.50;2.30;;;;;;;;;;5106100;28;24400;-60
2021/10/20 12:04:21;;;;;;;2.70;2.50;;;;;;;;;;5102144;28;24414;-60
2021/10/20 12:06:47;;;;;;;2.17;2.08;;;;;;;;;;5100792;28;24394;-60
2021/10/20 12:09:13;;;;;;;2.92;2.50;;;;;;;;;;5101943;28;24438;-60
2021/10/20 12:11:39;;;;;;;3.45;2.70;;;;;;;;;;5103906;28;24493;-61
2021/10/20 12:14:05;;;;;;;3.85;2.75;;;;;;;;;;5104225;28;24407;-59
2021/10/20 12:16:31;;;;;;;2.90;2.70;;;;;;;;;;5105494;28;24717;-60
2021/10/20 12:18:56;;;;;;;2.38;2.17;;;;;;;;;;5103352;28;24939;-60
2021/10/20 12:21:25;;;;;;;2.80;2.60;;;;;;;;;;5100036;28;24477;-61
2021/10/20 12:23:51;;;;;;;2.33;2.10;;;;;;;;;;5100080;28;24377;-61
2021/10/20 12:26:16;;;;;;;2.45;2.25;;;;;;;;;;5102946;28;24778;-61
2021/10/20 12:28:42;;;;;;;3.30;3.00;;;;;;;;;;5105531;28;24393;-61
2021/10/20 12:31:08;;;;;;;4.57;2.60;;;;;;;;;;5103447;28;24905;-61
2021/10/20 12:33:37;;;;;;;3.10;2.50;;;;;;;;;;5102008;28;24441;-61
2021/10/20 12:36:04;;;;;;;2.40;2.20;;;;;;;;;;5102266;28;24404;-60
2021/10/20 12:38:29;;;;;;;2.50;2.30;;;;;;;;;;5101418;28;24955;-61
2021/10/20 12:40:54;;;;;;;2.65;2.45;;;;;;;;;;5105460;28;24409;-61
2021/10/20 12:43:21;;;;;;;2.70;2.50;;;;;;;;;;5103474;28;24795;-62
2021/10/20 12:45:49;;;;;;;2.60;2.40;;;;;;;;;;5104528;28;24936;-61
2021/10/20 12:48:14;;;;;;;2.63;2.20;;;;;;;;;;5101274;28;24404;-62
2021/10/20 12:50:40;;;;;;;3.97;2.70;;;;;;;;;;5099221;28;24454;-62
2021/10/20 12:53:06;;;;;;;2.90;2.40;;;;;;;;;;5095420;28;24413;-62
2021/10/20 12:55:32;;;;;;;2.60;2.40;;;;;;;;;;5082812;28;24491;-61
2021/10/20 12:57:58;;;;;;;2.70;2.50;;;;;;;;;;5084253;28;24403;-61
2021/10/20 13:00:26;;;;;;;3.60;2.60;;;;;;;;;;5084458;28;25153;-62
2021/10/20 13:02:52;;;;;;;2.95;2.65;;;;;;;;;;5082793;28;24984;-61
2021/10/20 13:05:17;;;;;;;3.40;2.80;;;;;;;;;;5078867;28;24485;-62
2021/10/20 13:07:43;;;;;;;2.70;2.50;;;;;;;;;;5078792;28;24398;-62
2021/10/20 13:10:10;;;;;;;3.50;2.70;;;;;;;;;;5082478;28;24438;-61
2021/10/20 13:12:36;;;;;;;2.88;2.60;;;;;;;;;;5084345;28;24904;-62
2021/10/20 13:15:02;;;;;;;3.08;2.78;;;;;;;;;;5082786;28;24409;-62
2021/10/20 13:17:27;;;;;;;2.53;2.33;;;;;;;;;;5082252;28;24956;-61
2021/10/20 13:19:52;;;;;;;4.00;2.90;;;;;;;;;;5080278;28;24563;-61
2021/10/20 13:22:18;;;;;;;2.65;2.45;;;;;;;;;;5078748;28;24701;-61
2021/10/20 13:24:43;;;;;;;2.13;2.03;;;;;;;;;;5080597;28;24508;-61
2021/10/20 13:27:08;;;;;;;2.40;2.20;;;;;;;;;;5084107;28;24394;-61
2021/10/20 13:29:33;;;;;;;2.85;2.60;;;;;;;;;;5082633;28;24550;-61
2021/10/20 13:31:58;;;;;;;2.30;2.10;;;;;;;;;;5083970;28;24391;-61
2021/10/20 13:34:24;;;;;;;2.78;2.58;;;;;;;;;;5079943;28;24992;-62
2021/10/20 13:36:49;;;;;;;2.90;2.60;;;;;;;;;;5078624;28;24394;-61
2021/10/20 13:39:15;;;;;;;2.70;2.27;;;;;;;;;;5078983;28;25112;-62
2021/10/20 13:41:40;;;;;;;4.38;2.50;;;;;;;;;;5083846;28;24399;-62
2021/10/20 13:44:05;;;;;;;3.20;2.90;;;;;;;;;;5081840;28;24777;-62
2021/10/20 13:46:30;;;;;;;3.20;2.90;;;;;;;;;;5083809;28;24481;-62
2021/10/20 13:48:56;;;;;;;3.30;3.00;;;;;;;;;;5083289;28;24404;-62
2021/10/20 13:51:21;;;;;;;3.67;3.37;;;;;;;;;;5080037;28;24401;-62
2021/10/20 13:53:46;;;;;;;2.92;2.70;;;;;;;;;;5087214;28;24876;-62
2021/10/20 13:56:11;;;;;;;2.80;2.60;;;;;;;;;;5098619;28;24398;-62
2021/10/20 13:58:36;;;;;;;2.60;2.30;;;;;;;;;;5101303;28;24482;-62
2021/10/20 14:01:02;;;;;;;2.50;2.30;;;;;;;;;;5102457;28;24404;-62
2021/10/20 14:03:27;;;;;;;2.93;2.60;;;;;;;;;;5103772;28;24816;-61
2021/10/20 14:05:54;;;;;;;2.80;2.40;;;;;;;;;;5100186;28;24408;-62
2021/10/20 14:08:19;;;;;;;2.30;2.20;;;;;;;;;;5097872;28;24807;-60
2021/10/20 14:10:44;;;;;;;3.20;2.90;;;;;;;;;;5100590;28;24398;-62
2021/10/20 14:13:09;;;;;;;4.10;2.83;;;;;;;;;;5104081;28;24839;-62
2021/10/20 14:15:34;;;;;;;2.90;2.60;;;;;;;;;;5104015;28;24429;-62
2021/10/20 14:18:00;;;;;;;2.70;2.50;;;;;;;;;;5102428;28;24907;-61
2021/10/20 14:20:27;;;;;;;2.60;2.40;;;;;;;;;;5099943;28;24401;-61
2021/10/20 14:22:52;;;;;;;2.80;2.60;;;;;;;;;;5100103;28;24527;-61
2021/10/20 14:25:18;;;;;;;2.40;2.20;;;;;;;;;;5100056;28;24496;-62
2021/10/20 14:27:43;;;;;;;3.00;2.70;;;;;;;;;;5103613;28;24438;-62
2021/10/20 14:30:08;;;;;;;2.93;2.73;;;;;;;;;;5101949;28;24555;-62
2021/10/20 14:32:34;;;;;;;3.00;2.50;;;;;;;;;;5104004;28;25015;-62
2021/10/20 14:35:00;;;;;;;3.17;2.88;;;;;;;;;;5101729;28;24423;-62